Time;durP1;ratioP1;P1;durP2;ratioP2;P2;SDS_P1;SDS_P2;PMS_P1;PMS_P2;Temp;Humidity;BMP_temperature;BMP_pressure;BME280_temperature;BME280_humidity;BME280_pressure;Samples;Min_cycle;Max_cycle;Signal;HPM_P1;HPM_P2
2021/03/19 00:01:20;;;;;;;27.00;12.47;;;;;;;;;;6145164;23;20184;-89
2021/03/19 00:04:25;;;;;;;28.93;13.20;;;;;;;;;;6144422;23;20172;-89
2021/03/19 00:07:40;;;;;;;25.53;13.00;;;;;;;;;;6144597;23;20169;-90
2021/03/19 00:10:45;;;;;;;24.63;12.23;;;;;;;;;;6144519;23;20195;-90
2021/03/19 00:13:49;;;;;;;28.93;13.50;;;;;;;;;;6144577;23;20241;-89
2021/03/19 00:16:54;;;;;;;27.47;12.80;;;;;;;;;;6144766;23;20223;-91
2021/03/19 00:19:59;;;;;;;25.93;13.27;;;;;;;;;;6143014;23;20284;-88
2021/03/19 00:23:04;;;;;;;33.60;14.20;;;;;;;;;;6143860;23;20165;-89
2021/03/19 00:26:09;;;;;;;28.43;12.87;;;;;;;;;;6143397;23;20164;-89
2021/03/19 00:29:13;;;;;;;25.30;11.90;;;;;;;;;;6144214;23;20177;-89
2021/03/19 00:32:17;;;;;;;26.93;12.43;;;;;;;;;;6142059;23;20196;-89
2021/03/19 00:35:22;;;;;;;28.23;13.23;;;;;;;;;;6143410;23;20196;-89
2021/03/19 00:38:27;;;;;;;27.60;13.10;;;;;;;;;;6143569;23;20171;-89
2021/03/19 00:41:32;;;;;;;25.53;12.40;;;;;;;;;;6145948;23;20173;-89
2021/03/19 00:44:37;;;;;;;26.77;12.50;;;;;;;;;;6146012;23;20172;-89
2021/03/19 00:47:42;;;;;;;24.70;12.27;;;;;;;;;;6145888;23;20172;-90
2021/03/19 00:50:47;;;;;;;26.37;12.87;;;;;;;;;;6162572;23;20228;-89
2021/03/19 00:53:51;;;;;;;26.97;12.70;;;;;;;;;;6145407;23;20172;-89
2021/03/19 00:56:57;;;;;;;26.20;11.77;;;;;;;;;;6144530;23;20200;-90
2021/03/19 01:00:01;;;;;;;24.17;11.60;;;;;;;;;;6145859;23;20177;-89
2021/03/19 01:03:06;;;;;;;25.27;12.13;;;;;;;;;;6145534;23;20168;-89
2021/03/19 01:06:10;;;;;;;28.77;12.77;;;;;;;;;;6145800;23;20196;-90
2021/03/19 01:09:15;;;;;;;26.73;13.17;;;;;;;;;;6146484;23;20241;-88
2021/03/19 01:12:20;;;;;;;25.67;11.77;;;;;;;;;;6145249;23;20196;-88
2021/03/19 01:15:25;;;;;;;27.93;12.73;;;;;;;;;;6145295;23;20183;-88
2021/03/19 01:18:31;;;;;;;26.97;12.80;;;;;;;;;;6144866;23;20169;-88
2021/03/19 01:21:36;;;;;;;28.40;13.37;;;;;;;;;;6146163;23;20308;-90
2021/03/19 01:24:40;;;;;;;25.77;12.53;;;;;;;;;;6146268;23;20200;-89
2021/03/19 01:27:47;;;;;;;26.80;13.20;;;;;;;;;;6145597;23;20259;-89
2021/03/19 01:30:52;;;;;;;28.63;12.83;;;;;;;;;;6146326;23;20216;-90
2021/03/19 01:33:57;;;;;;;30.50;13.83;;;;;;;;;;6146652;23;20192;-89
2021/03/19 01:37:01;;;;;;;27.37;12.73;;;;;;;;;;6145657;23;20168;-89
2021/03/19 01:40:07;;;;;;;27.83;12.87;;;;;;;;;;6145291;23;20176;-89
2021/03/19 01:43:13;;;;;;;28.90;13.33;;;;;;;;;;6144476;23;20164;-88
2021/03/19 01:46:37;;;;;;;26.47;12.53;;;;;;;;;;6145221;23;20200;-90
2021/03/19 01:50:00;;;;;;;26.17;13.10;;;;;;;;;;6124250;23;20192;-89
2021/03/19 01:53:24;;;;;;;28.47;12.70;;;;;;;;;;6144687;23;20212;-89
2021/03/19 01:56:47;;;;;;;34.90;14.50;;;;;;;;;;6143967;23;20177;-88
2021/03/19 02:00:10;;;;;;;31.50;14.27;;;;;;;;;;6144370;23;20289;-89
2021/03/19 02:03:34;;;;;;;29.77;14.20;;;;;;;;;;6145256;23;20280;-88
2021/03/19 02:06:58;;;;;;;30.40;14.17;;;;;;;;;;6144144;23;20181;-88
2021/03/19 02:10:21;;;;;;;31.40;13.70;;;;;;;;;;6143084;23;20219;-89
2021/03/19 02:13:44;;;;;;;31.50;13.80;;;;;;;;;;6144083;23;20726;-88
2021/03/19 02:17:07;;;;;;;30.40;14.00;;;;;;;;;;6144454;23;20188;-89
2021/03/19 02:20:31;;;;;;;29.13;13.77;;;;;;;;;;6143876;23;20631;-89
2021/03/19 02:23:54;;;;;;;29.17;14.50;;;;;;;;;;6144217;23;20192;-90
2021/03/19 02:27:18;;;;;;;31.73;14.90;;;;;;;;;;6144317;23;20177;-90
2021/03/19 02:30:41;;;;;;;30.30;14.90;;;;;;;;;;6143219;23;20539;-89
2021/03/19 02:33:49;;;;;;;30.30;14.87;;;;;;;;;;6144958;23;20169;-89
2021/03/19 02:36:54;;;;;;;29.27;14.00;;;;;;;;;;6143733;23;20509;-90
2021/03/19 02:39:58;;;;;;;32.10;13.73;;;;;;;;;;6144877;23;20176;-91
2021/03/19 02:43:03;;;;;;;28.37;13.87;;;;;;;;;;6143983;23;20209;-89
2021/03/19 02:46:07;;;;;;;33.20;14.60;;;;;;;;;;6144729;23;20252;-88
2021/03/19 02:49:13;;;;;;;28.83;14.23;;;;;;;;;;6144688;23;20208;-89
2021/03/19 02:52:18;;;;;;;30.97;14.67;;;;;;;;;;6144825;23;20200;-90
2021/03/19 02:55:22;;;;;;;29.83;14.57;;;;;;;;;;6144430;23;20184;-89
2021/03/19 02:58:28;;;;;;;29.67;14.50;;;;;;;;;;6144613;23;20208;-90
2021/03/19 03:01:32;;;;;;;28.83;14.27;;;;;;;;;;6143571;23;20313;-90
2021/03/19 03:04:38;;;;;;;31.30;15.00;;;;;;;;;;6143854;23;20236;-89
2021/03/19 03:07:44;;;;;;;31.63;14.37;;;;;;;;;;6143816;23;20180;-88
2021/03/19 03:10:50;;;;;;;33.30;14.93;;;;;;;;;;6144026;23;20200;-90
2021/03/19 03:13:55;;;;;;;32.70;14.83;;;;;;;;;;6143937;23;20791;-88
2021/03/19 03:17:00;;;;;;;31.67;14.73;;;;;;;;;;6143665;23;20224;-88
2021/03/19 03:20:07;;;;;;;32.53;14.90;;;;;;;;;;6161459;23;20168;-90
2021/03/19 03:23:11;;;;;;;32.77;14.60;;;;;;;;;;6144760;23;20172;-89
2021/03/19 03:26:16;;;;;;;29.73;14.23;;;;;;;;;;6144478;23;20547;-90
2021/03/19 03:29:20;;;;;;;28.70;14.23;;;;;;;;;;6144157;23;20667;-89
2021/03/19 03:32:25;;;;;;;30.27;14.93;;;;;;;;;;6145404;23;20192;-89
2021/03/19 03:35:31;;;;;;;30.90;14.20;;;;;;;;;;6142852;23;20172;-89
2021/03/19 03:38:36;;;;;;;29.00;13.97;;;;;;;;;;6142813;23;20172;-92
2021/03/19 03:41:41;;;;;;;31.93;15.53;;;;;;;;;;6143296;23;20208;-89
2021/03/19 03:44:45;;;;;;;34.20;14.80;;;;;;;;;;6144192;23;20169;-89
2021/03/19 03:47:50;;;;;;;29.37;14.43;;;;;;;;;;6143395;23;20663;-90
2021/03/19 03:50:56;;;;;;;32.43;14.33;;;;;;;;;;6143579;23;20172;-89
2021/03/19 03:54:01;;;;;;;33.40;14.50;;;;;;;;;;6143915;23;20673;-90
2021/03/19 03:57:06;;;;;;;29.20;14.17;;;;;;;;;;6142701;23;20196;-91
2021/03/19 04:00:12;;;;;;;28.43;13.60;;;;;;;;;;6143105;23;20608;-89
2021/03/19 04:03:18;;;;;;;35.73;14.80;;;;;;;;;;6145205;23;20595;-91
2021/03/19 04:06:23;;;;;;;29.27;14.77;;;;;;;;;;6143663;23;20249;-88
2021/03/19 04:09:28;;;;;;;31.00;14.87;;;;;;;;;;6143371;23;20664;-89
2021/03/19 04:12:32;;;;;;;35.60;15.10;;;;;;;;;;6142084;23;20179;-90
2021/03/19 04:15:37;;;;;;;33.03;15.50;;;;;;;;;;6143054;23;20176;-90
2021/03/19 04:18:42;;;;;;;33.00;15.57;;;;;;;;;;6143314;23;20196;-89
2021/03/19 04:21:47;;;;;;;30.77;14.67;;;;;;;;;;6143257;23;20237;-91
2021/03/19 04:24:54;;;;;;;32.73;14.80;;;;;;;;;;6160786;23;20231;-88
2021/03/19 04:28:00;;;;;;;37.50;16.00;;;;;;;;;;6144074;23;20251;-90
2021/03/19 04:31:05;;;;;;;32.23;14.70;;;;;;;;;;6143960;23;20173;-88
2021/03/19 04:34:10;;;;;;;32.60;15.07;;;;;;;;;;6143925;23;20200;-90
2021/03/19 04:37:16;;;;;;;29.57;14.70;;;;;;;;;;6143911;23;20173;-90
2021/03/19 04:40:20;;;;;;;36.10;16.00;;;;;;;;;;6145058;23;20216;-91
2021/03/19 04:43:25;;;;;;;34.20;15.50;;;;;;;;;;6146415;23;20168;-88
2021/03/19 04:46:29;;;;;;;33.97;14.50;;;;;;;;;;6161080;23;20240;-89
2021/03/19 04:49:34;;;;;;;33.87;14.80;;;;;;;;;;6143110;23;20176;-89
2021/03/19 04:52:39;;;;;;;31.97;14.93;;;;;;;;;;6143538;23;20263;-87
2021/03/19 04:55:44;;;;;;;33.50;15.93;;;;;;;;;;6145069;23;20173;-90
2021/03/19 04:58:48;;;;;;;35.50;15.70;;;;;;;;;;6144564;23;20792;-90
2021/03/19 05:02:05;;;;;;;32.73;15.47;;;;;;;;;;6144861;23;20164;-88
2021/03/19 05:05:12;;;;;;;31.60;14.20;;;;;;;;;;6144587;23;20620;-88
2021/03/19 05:08:17;;;;;;;31.30;14.27;;;;;;;;;;6145481;23;20198;-88
2021/03/19 05:11:21;;;;;;;37.40;15.80;;;;;;;;;;6143867;23;20196;-90
2021/03/19 05:14:26;;;;;;;36.13;16.23;;;;;;;;;;6142855;23;20184;-91
2021/03/19 05:17:30;;;;;;;31.53;15.23;;;;;;;;;;6143621;23;20172;-90
2021/03/19 05:20:36;;;;;;;33.97;15.63;;;;;;;;;;6144314;23;20628;-91
2021/03/19 05:23:42;;;;;;;32.83;15.70;;;;;;;;;;6144769;23;20300;-88
2021/03/19 05:26:46;;;;;;;34.37;15.87;;;;;;;;;;6143881;23;20164;-88
2021/03/19 05:29:52;;;;;;;32.63;14.40;;;;;;;;;;6144436;23;20172;-90
2021/03/19 05:32:56;;;;;;;33.13;14.90;;;;;;;;;;6144895;23;20196;-90
2021/03/19 05:36:01;;;;;;;31.73;14.93;;;;;;;;;;6143997;23;20204;-89
2021/03/19 05:39:08;;;;;;;33.97;15.40;;;;;;;;;;6143992;23;20516;-91
2021/03/19 05:42:15;;;;;;;30.93;14.87;;;;;;;;;;6144742;23;20176;-90
2021/03/19 05:45:25;;;;;;;34.53;15.60;;;;;;;;;;6144270;23;20173;-90
2021/03/19 05:48:35;;;;;;;33.50;14.77;;;;;;;;;;6145532;23;20168;-90
2021/03/19 05:51:41;;;;;;;36.30;16.57;;;;;;;;;;6145709;23;20265;-88
2021/03/19 05:54:48;;;;;;;36.43;15.63;;;;;;;;;;6143772;23;20167;-89
2021/03/19 05:58:11;;;;;;;31.80;14.97;;;;;;;;;;6144012;23;20172;-88
2021/03/19 06:01:15;;;;;;;33.63;15.40;;;;;;;;;;6141153;23;20173;-91
2021/03/19 06:04:20;;;;;;;35.77;15.30;;;;;;;;;;6145111;23;20248;-89
2021/03/19 06:07:37;;;;;;;33.97;15.03;;;;;;;;;;6144820;23;20621;-88
2021/03/19 06:10:43;;;;;;;33.87;14.73;;;;;;;;;;6117802;23;716693;-89
2021/03/19 06:13:52;;;;;;;36.43;16.17;;;;;;;;;;6144507;23;20185;-90
2021/03/19 06:17:10;;;;;;;35.10;15.00;;;;;;;;;;6146803;23;20168;-90
2021/03/19 06:20:16;;;;;;;32.83;15.40;;;;;;;;;;6148019;23;20196;-90
2021/03/19 06:23:21;;;;;;;31.67;15.73;;;;;;;;;;6164785;23;20188;-90
2021/03/19 06:26:28;;;;;;;35.03;16.47;;;;;;;;;;6146490;23;20241;-88
2021/03/19 06:29:34;;;;;;;36.53;15.97;;;;;;;;;;6146628;23;20219;-90
2021/03/19 06:32:38;;;;;;;35.13;15.97;;;;;;;;;;6146577;23;20200;-91
2021/03/19 06:35:44;;;;;;;39.97;16.70;;;;;;;;;;6148635;23;20176;-89
2021/03/19 06:38:49;;;;;;;36.37;16.03;;;;;;;;;;6145616;23;20188;-90
2021/03/19 06:42:05;;;;;;;37.43;16.03;;;;;;;;;;6145523;23;20184;-90
2021/03/19 06:45:22;;;;;;;39.47;16.53;;;;;;;;;;6146498;23;20253;-89
2021/03/19 06:48:29;;;;;;;36.40;15.93;;;;;;;;;;6145725;23;20704;-90
2021/03/19 06:51:36;;;;;;;39.00;16.63;;;;;;;;;;6145700;23;20196;-90
2021/03/19 06:54:46;;;;;;;36.07;16.10;;;;;;;;;;6148660;23;20234;-90
2021/03/19 06:57:52;;;;;;;43.80;18.93;;;;;;;;;;6145971;23;20221;-89
2021/03/19 07:00:56;;;;;;;42.20;16.97;;;;;;;;;;6147750;23;20164;-89
2021/03/19 07:04:22;;;;;;;38.47;17.53;;;;;;;;;;6148381;23;20200;-89
2021/03/19 07:07:51;;;;;;;39.23;17.10;;;;;;;;;;6147923;23;20169;-89
2021/03/19 07:11:17;;;;;;;37.93;17.27;;;;;;;;;;6148267;23;20212;-88
2021/03/19 07:14:41;;;;;;;35.30;16.53;;;;;;;;;;6133016;23;20300;-88
2021/03/19 07:17:51;;;;;;;34.43;16.47;;;;;;;;;;6162789;23;20221;-88
2021/03/19 07:21:14;;;;;;;128.63;46.60;;;;;;;;;;6144997;23;20180;-90
2021/03/19 07:24:24;;;;;;;34.60;15.90;;;;;;;;;;6144918;23;20632;-89
2021/03/19 07:27:42;;;;;;;31.80;14.37;;;;;;;;;;6145740;23;20176;-90
2021/03/19 07:30:55;;;;;;;38.63;16.80;;;;;;;;;;6145553;23;20192;-92
2021/03/19 07:34:07;;;;;;;42.73;17.17;;;;;;;;;;6146318;23;20196;-91
2021/03/19 07:37:15;;;;;;;39.60;18.37;;;;;;;;;;6145190;23;20250;-91
2021/03/19 07:40:37;;;;;;;38.50;18.03;;;;;;;;;;6146759;23;20231;-90
2021/03/19 07:43:58;;;;;;;41.37;16.60;;;;;;;;;;6146354;23;20169;-89
2021/03/19 07:47:14;;;;;;;35.20;16.60;;;;;;;;;;6147622;23;20231;-90
2021/03/19 07:50:26;;;;;;;34.33;15.80;;;;;;;;;;6145632;23;20220;-89
2021/03/19 07:53:44;;;;;;;35.10;16.03;;;;;;;;;;6146006;23;20191;-93
2021/03/19 07:56:53;;;;;;;33.53;16.47;;;;;;;;;;6147101;23;20201;-90
2021/03/19 08:00:01;;;;;;;30.47;14.53;;;;;;;;;;6147495;23;20225;-90
2021/03/19 08:03:12;;;;;;;31.43;14.70;;;;;;;;;;6164556;23;20177;-89
2021/03/19 08:06:20;;;;;;;32.53;15.27;;;;;;;;;;6146605;23;20176;-90
2021/03/19 08:09:34;;;;;;;38.03;16.00;;;;;;;;;;6147671;23;20172;-90
2021/03/19 08:12:46;;;;;;;32.53;15.50;;;;;;;;;;6131493;23;20204;-90
2021/03/19 08:15:52;;;;;;;31.93;14.93;;;;;;;;;;6145014;23;20172;-91
2021/03/19 08:19:04;;;;;;;38.10;15.97;;;;;;;;;;6147153;23;20292;-90
2021/03/19 08:22:14;;;;;;;32.87;15.47;;;;;;;;;;6145178;23;20168;-90
2021/03/19 08:25:21;;;;;;;31.50;15.33;;;;;;;;;;6145938;23;20176;-90
2021/03/19 08:28:31;;;;;;;34.37;14.70;;;;;;;;;;6145811;23;20200;-89
2021/03/19 08:31:39;;;;;;;35.67;15.57;;;;;;;;;;6145116;23;20176;-91
2021/03/19 08:34:47;;;;;;;44.83;19.17;;;;;;;;;;6145554;23;20200;-91
2021/03/19 08:38:01;;;;;;;37.63;16.43;;;;;;;;;;6145304;23;20413;-90
2021/03/19 08:41:08;;;;;;;43.83;15.03;;;;;;;;;;6145505;23;20172;-89
2021/03/19 08:44:15;;;;;;;34.37;15.87;;;;;;;;;;6146276;23;20178;-90
2021/03/19 08:47:25;;;;;;;44.03;19.97;;;;;;;;;;6144496;23;20168;-91
2021/03/19 08:50:35;;;;;;;29.10;13.73;;;;;;;;;;6143918;23;20172;-90
2021/03/19 08:53:55;;;;;;;46.27;14.97;;;;;;;;;;6145828;23;20200;-90
2021/03/19 08:57:16;;;;;;;33.87;18.70;;;;;;;;;;6146342;23;20219;-88
2021/03/19 09:00:39;;;;;;;28.13;13.37;;;;;;;;;;6146393;23;20173;-89
2021/03/19 09:03:54;;;;;;;30.17;14.50;;;;;;;;;;6146213;23;20172;-90
2021/03/19 09:07:18;;;;;;;31.20;14.17;;;;;;;;;;6146955;23;20590;-89
2021/03/19 09:10:37;;;;;;;30.77;12.97;;;;;;;;;;6147149;23;20197;-88
2021/03/19 09:14:12;;;;;;;28.83;13.63;;;;;;;;;;6155433;23;20267;-88
2021/03/19 09:17:36;;;;;;;35.30;12.33;;;;;;;;;;6151740;23;20171;-90
2021/03/19 09:20:55;;;;;;;24.63;12.90;;;;;;;;;;6156051;23;20172;-91
2021/03/19 09:24:08;;;;;;;23.70;12.33;;;;;;;;;;6131464;23;20495;-91
2021/03/19 09:27:15;;;;;;;25.97;13.23;;;;;;;;;;6148358;23;20168;-91
2021/03/19 09:30:26;;;;;;;29.93;14.40;;;;;;;;;;6148048;23;20161;-91
2021/03/19 09:33:50;;;;;;;26.77;13.10;;;;;;;;;;6147055;23;20193;-89
2021/03/19 09:37:12;;;;;;;33.08;14.98;;;;;;;;;;6150878;23;20229;-90
2021/03/19 09:43:51;;;;;;;26.60;12.38;;;;;;;;;;6150248;23;20189;-90
2021/03/19 09:46:59;;;;;;;27.30;11.75;;;;;;;;;;6148631;23;20188;-91
2021/03/19 09:50:06;;;;;;;21.73;10.48;;;;;;;;;;6148450;23;20188;-92
2021/03/19 09:53:23;;;;;;;17.90;10.55;;;;;;;;;;6149108;23;20195;-90
2021/03/19 09:56:31;;;;;;;22.23;11.05;;;;;;;;;;6152884;23;20221;-90
2021/03/19 09:59:42;;;;;;;21.08;11.13;;;;;;;;;;6149217;23;20245;-90
2021/03/19 10:02:47;;;;;;;21.88;10.88;;;;;;;;;;6148871;23;20176;-90
2021/03/19 10:05:52;;;;;;;22.08;11.13;;;;;;;;;;6148587;23;20183;-89
2021/03/19 10:09:09;;;;;;;23.13;11.63;;;;;;;;;;6151163;23;20223;-90
2021/03/19 10:12:15;;;;;;;24.97;12.00;;;;;;;;;;6149591;23;20656;-90
2021/03/19 10:15:28;;;;;;;21.90;11.53;;;;;;;;;;6148593;23;20176;-90
2021/03/19 10:18:34;;;;;;;21.33;10.93;;;;;;;;;;6149105;23;20196;-90
2021/03/19 10:21:40;;;;;;;23.30;11.53;;;;;;;;;;6147446;23;20176;-89
2021/03/19 10:24:45;;;;;;;21.27;10.83;;;;;;;;;;6149752;23;20297;-90
2021/03/19 10:27:51;;;;;;;20.37;9.27;;;;;;;;;;6149219;23;20176;-90
2021/03/19 10:31:00;;;;;;;24.93;10.13;;;;;;;;;;6164752;23;20197;-90
2021/03/19 10:34:06;;;;;;;22.08;11.10;;;;;;;;;;6149999;23;20169;-91
2021/03/19 10:37:18;;;;;;;17.77;9.10;;;;;;;;;;6147931;23;20168;-91
2021/03/19 10:40:26;;;;;;;20.67;10.15;;;;;;;;;;6149532;23;20176;-90
2021/03/19 10:43:40;;;;;;;17.50;9.68;;;;;;;;;;6149108;23;20234;-91
2021/03/19 10:46:48;;;;;;;16.95;9.40;;;;;;;;;;6149170;23;20244;-90
2021/03/19 10:49:55;;;;;;;17.30;8.88;;;;;;;;;;6148753;23;20171;-90
2021/03/19 10:53:01;;;;;;;17.63;9.52;;;;;;;;;;6146385;23;20208;-91
2021/03/19 10:56:06;;;;;;;14.75;8.45;;;;;;;;;;6147819;23;20171;-91
2021/03/19 10:59:13;;;;;;;16.58;8.80;;;;;;;;;;6148227;23;20167;-92
2021/03/19 11:02:20;;;;;;;17.02;8.10;;;;;;;;;;6147892;23;20164;-92
2021/03/19 11:05:29;;;;;;;16.15;7.75;;;;;;;;;;6146559;23;20168;-91
2021/03/19 11:08:34;;;;;;;15.38;7.70;;;;;;;;;;6147412;23;20173;-91
2021/03/19 11:11:40;;;;;;;12.35;7.47;;;;;;;;;;6151170;23;20187;-92
2021/03/19 11:14:56;;;;;;;13.45;7.57;;;;;;;;;;6150637;23;20176;-92
2021/03/19 11:18:23;;;;;;;15.10;8.00;;;;;;;;;;6149650;23;20200;-91
2021/03/19 11:21:29;;;;;;;12.60;7.88;;;;;;;;;;6151249;23;20246;-92
2021/03/19 11:24:37;;;;;;;12.40;7.20;;;;;;;;;;6152065;23;20168;-90
2021/03/19 11:27:42;;;;;;;14.57;6.88;;;;;;;;;;6149563;23;20177;-90
2021/03/19 11:30:47;;;;;;;11.23;6.90;;;;;;;;;;6149209;23;20193;-92
2021/03/19 11:33:58;;;;;;;15.52;7.10;;;;;;;;;;6152942;23;20206;-91
2021/03/19 11:37:03;;;;;;;10.35;6.30;;;;;;;;;;6151371;23;20191;-92
2021/03/19 11:40:10;;;;;;;11.57;6.40;;;;;;;;;;6149809;23;20220;-92
2021/03/19 11:43:15;;;;;;;12.10;6.10;;;;;;;;;;6150939;23;20176;-92
2021/03/19 11:46:21;;;;;;;13.95;6.00;;;;;;;;;;6151936;23;20196;-92
2021/03/19 11:49:26;;;;;;;10.82;6.03;;;;;;;;;;6152488;23;20180;-93
2021/03/19 11:52:31;;;;;;;10.48;6.63;;;;;;;;;;6150631;23;20220;-91
2021/03/19 11:55:42;;;;;;;9.65;6.53;;;;;;;;;;6150416;23;20173;-91
2021/03/19 11:58:47;;;;;;;8.68;5.07;;;;;;;;;;6150279;23;20177;-91
2021/03/19 12:01:52;;;;;;;11.70;6.00;;;;;;;;;;6151631;23;20234;-91
2021/03/19 12:05:06;;;;;;;8.68;5.00;;;;;;;;;;6149613;23;20675;-92
2021/03/19 12:08:10;;;;;;;7.63;4.82;;;;;;;;;;6152237;23;20193;-91
2021/03/19 12:11:21;;;;;;;9.35;4.85;;;;;;;;;;6148736;23;20187;-91
2021/03/19 12:14:26;;;;;;;7.03;4.60;;;;;;;;;;6150173;23;20305;-89
2021/03/19 12:17:31;;;;;;;7.55;4.78;;;;;;;;;;6148274;23;20307;-92
2021/03/19 12:20:38;;;;;;;7.38;4.13;;;;;;;;;;6149405;23;20292;-91
2021/03/19 12:23:42;;;;;;;7.27;4.30;;;;;;;;;;6148682;23;20243;-90
2021/03/19 12:26:48;;;;;;;6.63;4.10;;;;;;;;;;6150696;23;20224;-91
2021/03/19 12:29:52;;;;;;;12.40;4.80;;;;;;;;;;6150522;23;20601;-91
2021/03/19 12:32:57;;;;;;;9.23;5.03;;;;;;;;;;6150202;23;20502;-90
2021/03/19 12:36:03;;;;;;;10.20;5.10;;;;;;;;;;6154119;23;20208;-90
2021/03/19 12:39:08;;;;;;;9.10;3.93;;;;;;;;;;6154538;23;20528;-89
2021/03/19 12:42:13;;;;;;;4.33;2.67;;;;;;;;;;6155002;23;20220;-90
2021/03/19 12:45:20;;;;;;;3.03;1.90;;;;;;;;;;6151748;23;20251;-90
2021/03/19 12:48:25;;;;;;;6.50;2.90;;;;;;;;;;6152269;23;20175;-90
2021/03/19 12:51:31;;;;;;;10.03;3.90;;;;;;;;;;6151595;23;20188;-90
2021/03/19 12:54:36;;;;;;;6.23;3.80;;;;;;;;;;6151608;23;20177;-89
2021/03/19 12:57:41;;;;;;;7.60;2.90;;;;;;;;;;6154145;23;20188;-90
2021/03/19 13:00:45;;;;;;;5.97;3.13;;;;;;;;;;6153409;23;20177;-90
2021/03/19 13:03:51;;;;;;;6.13;2.93;;;;;;;;;;6152273;23;20961;-91
2021/03/19 13:06:58;;;;;;;10.00;3.67;;;;;;;;;;6151207;23;20252;-90
2021/03/19 13:10:05;;;;;;;6.40;3.37;;;;;;;;;;6149744;23;20196;-90
2021/03/19 13:13:12;;;;;;;11.43;4.23;;;;;;;;;;6168315;23;20164;-90
2021/03/19 13:16:17;;;;;;;8.87;4.30;;;;;;;;;;6151514;23;20504;-90
2021/03/19 13:19:21;;;;;;;9.10;4.10;;;;;;;;;;6150398;23;20192;-89
2021/03/19 13:22:28;;;;;;;11.47;5.00;;;;;;;;;;6149259;23;20530;-89
2021/03/19 13:25:34;;;;;;;12.90;4.67;;;;;;;;;;6150033;23;20176;-90
2021/03/19 13:28:39;;;;;;;13.57;5.43;;;;;;;;;;6150911;23;20172;-90
2021/03/19 13:31:44;;;;;;;8.50;4.10;;;;;;;;;;6150613;23;20180;-90
2021/03/19 13:34:48;;;;;;;9.70;5.07;;;;;;;;;;6149768;23;20224;-89
2021/03/19 13:37:56;;;;;;;8.63;4.67;;;;;;;;;;6149098;23;20168;-89
2021/03/19 13:41:04;;;;;;;8.27;4.37;;;;;;;;;;6149774;23;20192;-89
2021/03/19 13:44:09;;;;;;;9.20;4.13;;;;;;;;;;6148716;23;20245;-88
2021/03/19 13:47:15;;;;;;;9.90;4.97;;;;;;;;;;6149011;23;20201;-88
2021/03/19 13:50:21;;;;;;;6.07;3.10;;;;;;;;;;6149638;23;20228;-89
2021/03/19 13:53:27;;;;;;;4.60;2.50;;;;;;;;;;6150064;23;20236;-91
2021/03/19 13:56:31;;;;;;;5.03;2.07;;;;;;;;;;6149368;23;20256;-90
2021/03/19 13:59:38;;;;;;;4.27;2.53;;;;;;;;;;6148486;23;20173;-89
2021/03/19 14:02:43;;;;;;;23.07;6.23;;;;;;;;;;6147819;23;20193;-88
2021/03/19 14:05:49;;;;;;;4.87;2.40;;;;;;;;;;6151811;23;20172;-89
2021/03/19 14:08:55;;;;;;;4.00;2.30;;;;;;;;;;6152286;23;20187;-90
2021/03/19 14:12:00;;;;;;;8.37;4.03;;;;;;;;;;6149544;23;20172;-90
2021/03/19 14:15:07;;;;;;;7.37;3.70;;;;;;;;;;6149979;23;20172;-89
2021/03/19 14:18:12;;;;;;;8.53;3.80;;;;;;;;;;6149132;23;20193;-90
2021/03/19 14:21:17;;;;;;;5.67;3.13;;;;;;;;;;6147467;23;20236;-90
2021/03/19 14:24:22;;;;;;;6.63;3.30;;;;;;;;;;6150911;23;20208;-91
2021/03/19 14:27:27;;;;;;;9.53;3.43;;;;;;;;;;6150034;23;20188;-91
2021/03/19 14:30:33;;;;;;;6.17;3.43;;;;;;;;;;6147708;23;20220;-90
2021/03/19 14:33:38;;;;;;;6.50;3.27;;;;;;;;;;6148410;23;20244;-90
2021/03/19 14:36:45;;;;;;;7.27;3.57;;;;;;;;;;6149283;23;20176;-90
2021/03/19 14:39:52;;;;;;;5.83;3.47;;;;;;;;;;6151271;23;20176;-89
2021/03/19 14:42:56;;;;;;;6.53;3.20;;;;;;;;;;6149219;23;20196;-90
2021/03/19 14:46:04;;;;;;;6.20;2.70;;;;;;;;;;6149127;23;20180;-90
2021/03/19 14:49:09;;;;;;;5.93;3.60;;;;;;;;;;6149402;23;20201;-89
2021/03/19 14:52:13;;;;;;;4.53;3.17;;;;;;;;;;6150359;23;20188;-90
2021/03/19 14:55:21;;;;;;;5.57;3.03;;;;;;;;;;6148633;23;20180;-90
2021/03/19 14:58:27;;;;;;;4.47;2.90;;;;;;;;;;6148995;23;20175;-90
2021/03/19 15:01:32;;;;;;;6.43;3.43;;;;;;;;;;6149571;23;20168;-89
2021/03/19 15:04:40;;;;;;;7.50;3.47;;;;;;;;;;6148087;23;20212;-90
2021/03/19 15:07:45;;;;;;;4.73;2.70;;;;;;;;;;6147497;23;20176;-89
2021/03/19 15:10:51;;;;;;;4.97;2.70;;;;;;;;;;6148896;23;20244;-89
2021/03/19 15:13:57;;;;;;;4.83;2.90;;;;;;;;;;6152855;23;20196;-90
2021/03/19 15:17:02;;;;;;;5.13;3.10;;;;;;;;;;6153806;23;20176;-91
2021/03/19 15:20:09;;;;;;;6.23;3.47;;;;;;;;;;6151753;23;20173;-92
2021/03/19 15:23:14;;;;;;;5.30;3.33;;;;;;;;;;6150143;23;20212;-91
2021/03/19 15:26:21;;;;;;;5.00;2.90;;;;;;;;;;6149634;23;20176;-89
2021/03/19 15:29:26;;;;;;;6.70;3.53;;;;;;;;;;6150536;23;20184;-90
2021/03/19 15:32:32;;;;;;;6.90;3.40;;;;;;;;;;6149597;23;20197;-90
2021/03/19 15:35:39;;;;;;;5.33;3.23;;;;;;;;;;6149291;23;20180;-91
2021/03/19 15:38:44;;;;;;;5.83;3.67;;;;;;;;;;6151551;23;20229;-90
2021/03/19 15:41:50;;;;;;;4.90;3.00;;;;;;;;;;6150442;23;20172;-91
2021/03/19 15:44:55;;;;;;;10.23;4.37;;;;;;;;;;6148154;23;20192;-91
2021/03/19 15:48:00;;;;;;;9.80;4.60;;;;;;;;;;6150491;23;20159;-90
2021/03/19 15:51:07;;;;;;;7.13;3.70;;;;;;;;;;6152339;23;20168;-91
2021/03/19 15:54:11;;;;;;;5.93;3.67;;;;;;;;;;6150575;23;20216;-91
2021/03/19 15:57:19;;;;;;;6.73;3.87;;;;;;;;;;6151686;23;20620;-90
2021/03/19 16:00:25;;;;;;;7.43;4.27;;;;;;;;;;6152574;23;20235;-90
2021/03/19 16:03:30;;;;;;;10.27;4.23;;;;;;;;;;6153780;23;20213;-90
2021/03/19 16:06:35;;;;;;;6.80;3.90;;;;;;;;;;6150729;23;20196;-91
2021/03/19 16:09:40;;;;;;;6.53;4.03;;;;;;;;;;6149066;23;20168;-87
2021/03/19 16:12:45;;;;;;;7.67;3.97;;;;;;;;;;6150311;23;20168;-91
2021/03/19 16:15:50;;;;;;;7.13;3.67;;;;;;;;;;6149370;23;20176;-91
2021/03/19 16:18:54;;;;;;;6.97;3.60;;;;;;;;;;6147905;23;20211;-89
2021/03/19 16:21:59;;;;;;;8.93;4.20;;;;;;;;;;6149967;23;20173;-90
2021/03/19 16:25:04;;;;;;;7.03;4.17;;;;;;;;;;6147525;23;20165;-88
2021/03/19 16:28:11;;;;;;;11.00;3.90;;;;;;;;;;6147134;23;20176;-89
2021/03/19 16:31:16;;;;;;;6.20;3.60;;;;;;;;;;6150817;23;20216;-89
2021/03/19 16:34:22;;;;;;;9.63;3.70;;;;;;;;;;6147908;23;20217;-90
2021/03/19 16:37:27;;;;;;;6.27;3.50;;;;;;;;;;6149886;23;20253;-89
2021/03/19 16:40:34;;;;;;;6.97;4.03;;;;;;;;;;6147869;23;20168;-89
2021/03/19 16:43:41;;;;;;;6.37;3.03;;;;;;;;;;6148765;23;20199;-91
2021/03/19 16:46:46;;;;;;;3.00;1.53;;;;;;;;;;6148343;23;20218;-90
2021/03/19 16:49:51;;;;;;;4.00;2.90;;;;;;;;;;6149033;23;20220;-90
2021/03/19 16:52:59;;;;;;;7.17;3.33;;;;;;;;;;6168339;23;20177;-86
2021/03/19 16:56:04;;;;;;;6.67;3.50;;;;;;;;;;6148909;23;20172;-91
2021/03/19 16:59:10;;;;;;;5.80;3.13;;;;;;;;;;6150236;23;20876;-91
2021/03/19 17:02:16;;;;;;;6.07;3.70;;;;;;;;;;6149770;23;20399;-92
2021/03/19 17:05:23;;;;;;;8.33;3.60;;;;;;;;;;6149837;23;20173;-91
2021/03/19 17:08:30;;;;;;;11.83;5.53;;;;;;;;;;6149908;23;20785;-91
2021/03/19 17:11:34;;;;;;;6.43;2.80;;;;;;;;;;6150952;23;20188;-91
2021/03/19 17:14:40;;;;;;;5.23;3.20;;;;;;;;;;6149190;23;20172;-89
2021/03/19 17:17:47;;;;;;;7.27;3.00;;;;;;;;;;6148499;23;20180;-90
2021/03/19 17:20:53;;;;;;;9.63;3.33;;;;;;;;;;6149418;23;20176;-90
2021/03/19 17:23:58;;;;;;;5.50;3.00;;;;;;;;;;6151326;23;20196;-89
2021/03/19 17:27:04;;;;;;;17.23;8.97;;;;;;;;;;6149906;23;20240;-91
2021/03/19 17:30:11;;;;;;;16.40;8.13;;;;;;;;;;6152096;23;20205;-90
2021/03/19 17:33:27;;;;;;;7.63;3.50;;;;;;;;;;6149920;23;20189;-90
2021/03/19 17:36:33;;;;;;;6.33;3.60;;;;;;;;;;6150910;23;20173;-90
2021/03/19 17:39:47;;;;;;;7.03;3.20;;;;;;;;;;6151073;23;20172;-91
2021/03/19 17:42:52;;;;;;;7.20;4.17;;;;;;;;;;6152050;23;20188;-89
2021/03/19 17:46:02;;;;;;;9.90;6.37;;;;;;;;;;6152004;23;20176;-89
2021/03/19 17:49:07;;;;;;;8.83;4.30;;;;;;;;;;6151118;23;20670;-89
2021/03/19 17:52:12;;;;;;;6.03;3.40;;;;;;;;;;6150866;23;20213;-90
2021/03/19 17:55:17;;;;;;;9.03;3.63;;;;;;;;;;6151514;23;20176;-89
2021/03/19 17:58:22;;;;;;;8.17;4.33;;;;;;;;;;6150709;23;20172;-90
2021/03/19 18:01:29;;;;;;;6.63;3.67;;;;;;;;;;6149893;23;20184;-91
2021/03/19 18:04:38;;;;;;;6.60;3.97;;;;;;;;;;6150285;23;20244;-89
2021/03/19 18:07:43;;;;;;;7.03;3.90;;;;;;;;;;6136170;23;20205;-90
2021/03/19 18:10:48;;;;;;;6.00;3.53;;;;;;;;;;6151350;23;20237;-91
2021/03/19 18:13:53;;;;;;;6.73;3.53;;;;;;;;;;6152056;23;20236;-91
2021/03/19 18:16:59;;;;;;;6.50;3.30;;;;;;;;;;6150358;23;20172;-90
2021/03/19 18:20:04;;;;;;;8.07;4.30;;;;;;;;;;6151681;23;20193;-89
2021/03/19 18:23:10;;;;;;;7.60;4.33;;;;;;;;;;6151868;23;20199;-91
2021/03/19 18:26:15;;;;;;;10.93;4.37;;;;;;;;;;6151680;23;20168;-89
2021/03/19 18:29:20;;;;;;;11.40;5.43;;;;;;;;;;6151296;23;20156;-89